Loris, SC (29569)

18:50 EDT le 31 octobre 2014 (GMT -0400)
HWY 9 BUS. WEST. | Change Station
CLOSE
Current Station
Stations météorologiques personnelles
Location: Loris, SC
Altitude: 99 ft
Stations météo à proximité
Avis météorologiques actifs: Special Statement

Alt. 99 ft 34.07 °N, 78.91 °W | Updated 3 seconds ago

Ciel dégagé
Ciel dégagé
57.3 ° F
Paraît 57.3 ° F
N
0.0
Vent Variable Vent de Nord
Gusts 0.0 mph

Aujourd'hui
Haut(e) -- | Bas -- ° F
--% Risque de précip.
Hier
Haut(e) -- | Bas -- ° F
Precip. -- pouce
7:34 AM 6:23 PM
Premier quartier, 59% visible
Pression 29.80 pouce
Visibilité 10.0 Miles terrestres
Nuages Ciel dégagé
Point de rosée 49 ° F
Humidité 74%
Précipitations 0.01 pouce
Profondeur de la couche neigeuse Non disponible.
UV 0 sur 12
Pollen 3.10 sur 12
Qualité de l'air Non disponible.
Flu Activity Non disponible.
METAR KHYW 312235Z AUTO 00000KT 10SM CLR 13/10 A2980 RMK AO2

More Conditions Fewer Conditions

Pression 29.80 pouce
Visibilité 10.0 Miles terrestres
Nuages Ciel dégagé
Point de rosée 49 ° F
Humidité 74%
Précipitations 0.01 pouce
Profondeur de la couche neigeuse Non disponible.
UV 0 sur 12
Pollen 3.10 sur 12
Qualité de l'air Non disponible.
Flu Activity Non disponible.
METAR KHYW 312235Z AUTO 00000KT 10SM CLR 13/10 A2980 RMK AO2

More Conditions Fewer Conditions

10-Day Weather Forecast

Almanac

Astronomie

Oct. 31, 2014 Lever Coucher
Temps réel
Crépuscule civil
Crépuscule nautique
Crépuscule astronomique
Lune
Durée de lumière visible
Longueur du jour
Tomorrow will be .
, % of the Moon is Illuminated

Extrêmes aujourd'hui

State Highs State Lows

Community

WunderPhotos

Upload Photos

1,766,770 Photos téléchargées !

WunderBlogs® & News

Nearby

Qualité de l'air

  Qualité de l'air Indice de la qualité de l'air Polluant
Not available.

Épaisseur de neige

Station Depth Altitude

Activité sismique

Ville Distance Mag. Time & Date
Minimum magnitude displayed is 2.5.

Températures des eaux côtières

Lieu Température

Stations météo à proximité